La Jolla, California
Current Conditions -  °F | °C
As of 12:55 AM on Sunday 26 Oct 2014 (Local Time) from KNKX Reporting Station
Few Clouds Few Clouds  
Wind Chill: 61°   Ceiling: Unl
Heat Index: 61°   Visibility: 10mi
Dew Point: 57°   Wind: 7mph
Humidity: 87%   Direction: 90°E
Pressure: 30.02"   Gusts: NA
Location:  32.84°N, 117.27°W
Report Text: KNKX 260755Z 09006KT 10SM FEW017 16/14 A3002 RMK AO2 SLP160 T01610139 402780161
Loading
Personal Weather Stations






























Interactive Weather Map
Tropical Storm Tracking
New forecast layout! Learn more

10-Day Weather Forecast

Advertisements
Track Severe Weather on mobile